createdAt,value
2018-02-21T00:09:04.232Z,63.60
2018-02-21T00:19:05.743Z,63.20
2018-02-21T00:29:07.213Z,64.00
2018-02-21T00:39:09.461Z,63.00
2018-02-21T00:49:11.700Z,62.60
2018-02-21T00:59:13.258Z,62.60
2018-02-21T01:09:14.844Z,64.30
2018-02-21T01:19:17.078Z,62.40
2018-02-21T01:29:18.632Z,62.20
2018-02-21T01:39:20.185Z,63.00
2018-02-21T01:49:21.676Z,62.40
2018-02-21T01:59:23.282Z,62.70
2018-02-21T02:09:24.809Z,62.30
2018-02-21T02:19:26.379Z,63.30
2018-02-21T02:29:27.905Z,63.90
2018-02-21T02:39:47.845Z,63.70
2018-02-21T02:49:49.394Z,63.20
2018-02-21T02:59:50.980Z,64.50
2018-02-21T03:09:52.444Z,65.10
2018-02-21T03:19:53.993Z,65.30
2018-02-21T03:29:55.566Z,66.20
2018-02-21T03:39:57.161Z,66.20
2018-02-21T03:49:58.693Z,66.00
2018-02-21T04:00:00.239Z,67.60
2018-02-21T04:10:01.782Z,67.30
2018-02-21T04:20:04.053Z,67.20
2018-02-21T04:30:05.592Z,67.10
2018-02-21T04:40:07.842Z,68.20
2018-02-21T04:50:09.440Z,68.10
2018-02-21T05:00:11.793Z,67.90
2018-02-21T05:10:13.296Z,67.70
2018-02-21T05:20:15.031Z,67.40
2018-02-21T05:30:18.204Z,68.70
2018-02-21T05:40:19.880Z,68.60
2018-02-21T05:50:22.240Z,71.30
2018-02-21T06:00:23.788Z,71.30
2018-02-21T06:10:26.088Z,71.00
2018-02-21T06:20:27.673Z,70.90
2018-02-21T06:30:29.171Z,70.40
2018-02-21T06:40:30.766Z,70.90
2018-02-21T06:50:32.241Z,71.90
2018-02-21T07:00:33.893Z,71.10
2018-02-21T07:10:36.146Z,68.10
2018-02-21T07:20:37.700Z,67.90
2018-02-21T07:30:39.230Z,65.30
2018-02-21T07:40:41.528Z,60.10
2018-02-21T07:50:43.802Z,58.50
2018-02-21T08:00:45.450Z,58.50
2018-02-21T08:10:47.756Z,59.10
2018-02-21T08:20:49.348Z,59.20
2018-02-21T08:30:50.887Z,58.30
2018-02-21T08:40:52.400Z,58.00
2018-02-21T08:50:53.902Z,56.80
2018-02-21T09:00:55.409Z,56.50
2018-02-21T09:10:57.275Z,55.00
2018-02-21T09:20:58.780Z,55.60
2018-02-21T09:31:01.065Z,55.80
2018-02-21T09:41:02.651Z,55.70
2018-02-21T09:51:05.114Z,56.00
2018-02-21T10:01:07.400Z,54.90
2018-02-21T10:11:08.985Z,54.90
2018-02-21T10:21:10.550Z,56.50
2018-02-21T10:31:12.078Z,53.60
2018-02-21T10:41:13.589Z,55.00
2018-02-21T10:51:15.169Z,52.90
2018-02-21T11:01:21.666Z,51.20
2018-02-21T11:11:23.287Z,49.20
2018-02-21T11:21:24.878Z,49.80
2018-02-21T11:31:26.426Z,52.30
2018-02-21T11:41:27.962Z,47.10
2018-02-21T11:51:29.549Z,48.90
2018-02-21T12:01:31.827Z,50.70
2018-02-21T12:11:33.357Z,50.00
2018-02-21T12:21:35.624Z,47.40
2018-02-21T12:31:37.187Z,47.50
2018-02-21T12:41:42.658Z,47.90
2018-02-21T12:51:44.238Z,45.00
2018-02-21T13:01:45.756Z,49.00
2018-02-21T13:11:47.356Z,45.50
2018-02-21T13:21:48.856Z,48.30
2018-02-21T13:31:50.426Z,44.90
2018-02-21T13:41:52.015Z,43.70
2018-02-21T13:51:53.571Z,45.30
2018-02-21T14:01:55.883Z,43.50
2018-02-21T14:11:58.259Z,42.60
2018-02-21T14:21:59.754Z,42.60
2018-02-21T14:32:01.292Z,40.40
2018-02-21T14:42:02.880Z,45.80
2018-02-21T14:52:04.421Z,39.70
2018-02-21T15:02:05.996Z,41.10
2018-02-21T15:12:08.317Z,43.70
2018-02-21T15:22:10.622Z,42.30
2018-02-21T15:32:12.087Z,42.20
2018-02-21T15:42:13.662Z,43.10
2018-02-21T15:52:15.256Z,42.80
2018-02-21T16:02:16.893Z,45.00
2018-02-21T16:12:18.458Z,46.10
2018-02-21T16:22:20.097Z,47.40
2018-02-21T16:32:21.699Z,48.90
2018-02-21T16:42:23.233Z,50.80
2018-02-21T16:52:25.559Z,52.50
2018-02-21T17:02:27.893Z,53.20
2018-02-21T17:12:29.451Z,53.20
2018-02-21T17:22:30.967Z,53.60
2018-02-21T17:32:33.374Z,53.00
2018-02-21T17:42:35.540Z,53.10
2018-02-21T17:52:37.147Z,51.20
2018-02-21T18:02:38.726Z,51.70
2018-02-21T18:12:40.308Z,52.10
2018-02-21T18:22:42.578Z,53.40
2018-02-21T18:32:44.118Z,53.40
2018-02-21T18:42:46.351Z,55.50
2018-02-21T18:52:47.887Z,55.40
2018-02-21T19:02:49.397Z,55.40
2018-02-21T19:12:51.040Z,55.90
2018-02-21T19:22:52.773Z,57.10
2018-02-21T19:32:54.351Z,56.50
2018-02-21T19:42:55.965Z,57.00
2018-02-21T19:52:57.601Z,56.50
2018-02-21T20:02:59.173Z,57.10
2018-02-21T20:13:00.768Z,57.60
2018-02-21T20:23:02.476Z,58.50
2018-02-21T20:33:04.052Z,58.00
2018-02-21T20:43:06.259Z,58.10
2018-02-21T20:53:08.641Z,58.90
2018-02-21T21:03:10.256Z,58.90
2018-02-21T21:13:11.731Z,59.00
2018-02-21T21:23:13.253Z,60.50
2018-02-21T21:33:14.794Z,60.30
2018-02-21T21:43:17.006Z,62.30
2018-02-21T21:53:19.210Z,62.30
2018-02-21T22:03:21.478Z,61.90
2018-02-21T22:13:23.053Z,61.80
2018-02-21T22:23:24.642Z,63.10
2018-02-21T22:33:26.988Z,63.20
2018-02-21T22:43:28.513Z,63.20
2018-02-21T22:53:30.107Z,62.50
2018-02-21T23:03:31.674Z,62.90
2018-02-21T23:13:33.193Z,62.90
2018-02-21T23:23:34.749Z,62.70
2018-02-21T23:33:37.033Z,62.60
2018-02-21T23:43:38.582Z,62.40
2018-02-21T23:53:40.248Z,62.00
